sensor_id;sensor_type;location;lat;lon;timestamp;P1;durP1;ratioP1;P2;durP2;ratioP2
33152;SDS011;19509;43.862;26.176;2023-03-01T00:01:54;2.20;;;2.20;;
33152;SDS011;19509;43.862;26.176;2023-03-01T00:04:19;2.27;;;2.27;;
33152;SDS011;19509;43.862;26.176;2023-03-01T00:06:45;2.30;;;2.30;;
33152;SDS011;19509;43.862;26.176;2023-03-01T00:09:12;2.60;;;2.60;;
33152;SDS011;19509;43.862;26.176;2023-03-01T00:11:38;2.30;;;2.30;;
33152;SDS011;19509;43.862;26.176;2023-03-01T00:14:04;2.20;;;2.20;;
33152;SDS011;19509;43.862;26.176;2023-03-01T00:16:31;2.43;;;2.43;;
33152;SDS011;19509;43.862;26.176;2023-03-01T00:18:58;2.30;;;2.30;;
33152;SDS011;19509;43.862;26.176;2023-03-01T00:21:24;2.70;;;2.70;;
33152;SDS011;19509;43.862;26.176;2023-03-01T00:23:50;2.77;;;2.77;;
33152;SDS011;19509;43.862;26.176;2023-03-01T00:26:17;2.70;;;2.70;;
33152;SDS011;19509;43.862;26.176;2023-03-01T00:28:44;2.60;;;2.60;;
33152;SDS011;19509;43.862;26.176;2023-03-01T00:31:12;2.80;;;2.80;;
33152;SDS011;19509;43.862;26.176;2023-03-01T00:33:39;3.20;;;3.10;;
33152;SDS011;19509;43.862;26.176;2023-03-01T00:36:05;3.27;;;3.20;;
33152;SDS011;19509;43.862;26.176;2023-03-01T00:38:52;2.80;;;2.80;;
33152;SDS011;19509;43.862;26.176;2023-03-01T00:41:18;3.23;;;3.10;;
33152;SDS011;19509;43.862;26.176;2023-03-01T00:43:44;3.00;;;3.00;;
33152;SDS011;19509;43.862;26.176;2023-03-01T00:46:14;2.80;;;2.80;;
33152;SDS011;19509;43.862;26.176;2023-03-01T00:48:44;3.10;;;3.00;;
33152;SDS011;19509;43.862;26.176;2023-03-01T00:51:17;2.80;;;2.80;;
33152;SDS011;19509;43.862;26.176;2023-03-01T00:53:44;3.10;;;3.10;;
33152;SDS011;19509;43.862;26.176;2023-03-01T00:56:11;2.80;;;2.80;;
33152;SDS011;19509;43.862;26.176;2023-03-01T00:58:38;2.77;;;2.77;;
33152;SDS011;19509;43.862;26.176;2023-03-01T01:01:11;3.07;;;3.00;;
33152;SDS011;19509;43.862;26.176;2023-03-01T01:03:46;2.83;;;2.83;;
33152;SDS011;19509;43.862;26.176;2023-03-01T01:06:23;3.40;;;3.20;;
33152;SDS011;19509;43.862;26.176;2023-03-01T01:08:57;3.17;;;3.07;;
33152;SDS011;19509;43.862;26.176;2023-03-01T01:11:24;3.23;;;3.23;;
33152;SDS011;19509;43.862;26.176;2023-03-01T01:13:51;3.60;;;3.50;;
33152;SDS011;19509;43.862;26.176;2023-03-01T01:16:17;3.50;;;3.40;;
33152;SDS011;19509;43.862;26.176;2023-03-01T01:18:44;3.50;;;3.40;;
33152;SDS011;19509;43.862;26.176;2023-03-01T01:21:11;3.23;;;3.13;;
33152;SDS011;19509;43.862;26.176;2023-03-01T01:23:43;3.37;;;3.27;;
33152;SDS011;19509;43.862;26.176;2023-03-01T01:26:10;3.70;;;3.60;;
33152;SDS011;19509;43.862;26.176;2023-03-01T01:28:38;3.70;;;3.60;;
33152;SDS011;19509;43.862;26.176;2023-03-01T01:31:04;3.47;;;3.37;;
33152;SDS011;19509;43.862;26.176;2023-03-01T01:33:31;3.77;;;3.67;;
33152;SDS011;19509;43.862;26.176;2023-03-01T01:35:56;3.93;;;3.83;;
33152;SDS011;19509;43.862;26.176;2023-03-01T01:38:22;4.20;;;4.10;;
33152;SDS011;19509;43.862;26.176;2023-03-01T01:40:48;3.80;;;3.70;;
33152;SDS011;19509;43.862;26.176;2023-03-01T01:43:28;3.90;;;3.80;;
33152;SDS011;19509;43.862;26.176;2023-03-01T01:45:56;3.80;;;3.70;;
33152;SDS011;19509;43.862;26.176;2023-03-01T01:48:31;3.60;;;3.50;;
33152;SDS011;19509;43.862;26.176;2023-03-01T01:51:18;3.90;;;3.80;;
33152;SDS011;19509;43.862;26.176;2023-03-01T01:53:46;3.37;;;3.27;;
33152;SDS011;19509;43.862;26.176;2023-03-01T01:56:16;3.97;;;3.87;;
33152;SDS011;19509;43.862;26.176;2023-03-01T01:58:44;3.73;;;3.63;;
33152;SDS011;19509;43.862;26.176;2023-03-01T02:01:10;3.70;;;3.60;;
33152;SDS011;19509;43.862;26.176;2023-03-01T02:03:37;3.77;;;3.67;;
33152;SDS011;19509;43.862;26.176;2023-03-01T02:08:44;3.97;;;3.87;;
33152;SDS011;19509;43.862;26.176;2023-03-01T02:11:12;3.80;;;3.70;;
33152;SDS011;19509;43.862;26.176;2023-03-01T02:13:39;3.77;;;3.67;;
33152;SDS011;19509;43.862;26.176;2023-03-01T02:16:09;4.67;;;4.57;;
33152;SDS011;19509;43.862;26.176;2023-03-01T02:18:38;4.00;;;3.90;;
33152;SDS011;19509;43.862;26.176;2023-03-01T02:23:45;3.70;;;3.60;;
33152;SDS011;19509;43.862;26.176;2023-03-01T02:26:11;4.20;;;4.10;;
33152;SDS011;19509;43.862;26.176;2023-03-01T02:28:45;4.27;;;4.17;;
33152;SDS011;19509;43.862;26.176;2023-03-01T02:31:14;4.27;;;4.17;;
33152;SDS011;19509;43.862;26.176;2023-03-01T02:34:00;4.10;;;4.00;;
33152;SDS011;19509;43.862;26.176;2023-03-01T02:36:30;4.30;;;4.20;;
33152;SDS011;19509;43.862;26.176;2023-03-01T02:39:00;4.03;;;3.93;;
33152;SDS011;19509;43.862;26.176;2023-03-01T02:41:28;4.10;;;4.00;;
33152;SDS011;19509;43.862;26.176;2023-03-01T02:44:00;4.10;;;4.00;;
33152;SDS011;19509;43.862;26.176;2023-03-01T02:46:26;4.00;;;3.90;;
33152;SDS011;19509;43.862;26.176;2023-03-01T02:48:56;4.37;;;4.27;;
33152;SDS011;19509;43.862;26.176;2023-03-01T02:56:38;4.47;;;4.37;;
33152;SDS011;19509;43.862;26.176;2023-03-01T02:59:04;4.40;;;4.30;;
33152;SDS011;19509;43.862;26.176;2023-03-01T03:01:30;4.37;;;4.27;;
33152;SDS011;19509;43.862;26.176;2023-03-01T03:04:09;4.33;;;4.23;;
33152;SDS011;19509;43.862;26.176;2023-03-01T03:06:36;4.30;;;4.20;;
33152;SDS011;19509;43.862;26.176;2023-03-01T03:09:02;4.40;;;4.30;;
33152;SDS011;19509;43.862;26.176;2023-03-01T03:11:29;4.40;;;4.30;;
33152;SDS011;19509;43.862;26.176;2023-03-01T03:13:55;4.97;;;4.87;;
33152;SDS011;19509;43.862;26.176;2023-03-01T03:16:22;4.80;;;4.70;;
33152;SDS011;19509;43.862;26.176;2023-03-01T03:18:48;4.10;;;4.00;;
33152;SDS011;19509;43.862;26.176;2023-03-01T03:21:14;4.30;;;4.20;;
33152;SDS011;19509;43.862;26.176;2023-03-01T03:23:39;4.67;;;4.57;;
33152;SDS011;19509;43.862;26.176;2023-03-01T03:26:05;4.47;;;4.37;;
33152;SDS011;19509;43.862;26.176;2023-03-01T03:28:34;4.60;;;4.50;;
33152;SDS011;19509;43.862;26.176;2023-03-01T03:31:00;4.40;;;4.30;;
33152;SDS011;19509;43.862;26.176;2023-03-01T03:33:29;4.30;;;4.20;;
33152;SDS011;19509;43.862;26.176;2023-03-01T03:35:56;4.30;;;4.20;;
33152;SDS011;19509;43.862;26.176;2023-03-01T03:38:21;4.40;;;4.30;;
33152;SDS011;19509;43.862;26.176;2023-03-01T03:40:48;4.27;;;4.17;;
33152;SDS011;19509;43.862;26.176;2023-03-01T03:43:26;4.57;;;4.47;;
33152;SDS011;19509;43.862;26.176;2023-03-01T03:45:51;4.40;;;4.30;;
33152;SDS011;19509;43.862;26.176;2023-03-01T03:48:18;4.10;;;4.00;;
33152;SDS011;19509;43.862;26.176;2023-03-01T03:50:51;3.83;;;3.73;;
33152;SDS011;19509;43.862;26.176;2023-03-01T03:53:19;4.23;;;4.13;;
33152;SDS011;19509;43.862;26.176;2023-03-01T03:55:46;4.20;;;4.10;;
33152;SDS011;19509;43.862;26.176;2023-03-01T03:58:14;4.00;;;3.90;;
33152;SDS011;19509;43.862;26.176;2023-03-01T04:00:42;4.03;;;3.93;;
33152;SDS011;19509;43.862;26.176;2023-03-01T04:03:09;4.33;;;4.23;;
33152;SDS011;19509;43.862;26.176;2023-03-01T04:05:36;4.27;;;4.17;;
33152;SDS011;19509;43.862;26.176;2023-03-01T04:08:03;4.80;;;4.70;;
33152;SDS011;19509;43.862;26.176;2023-03-01T04:10:35;4.13;;;4.03;;
33152;SDS011;19509;43.862;26.176;2023-03-01T04:13:10;4.47;;;4.37;;
33152;SDS011;19509;43.862;26.176;2023-03-01T04:15:37;5.03;;;4.83;;
33152;SDS011;19509;43.862;26.176;2023-03-01T04:18:04;4.70;;;4.50;;
33152;SDS011;19509;43.862;26.176;2023-03-01T04:20:31;4.73;;;4.60;;
33152;SDS011;19509;43.862;26.176;2023-03-01T04:23:13;4.17;;;4.07;;
33152;SDS011;19509;43.862;26.176;2023-03-01T04:30:49;4.37;;;4.27;;
33152;SDS011;19509;43.862;26.176;2023-03-01T04:33:15;3.90;;;3.80;;
33152;SDS011;19509;43.862;26.176;2023-03-01T04:35:41;4.20;;;4.10;;
33152;SDS011;19509;43.862;26.176;2023-03-01T04:38:07;4.43;;;4.33;;
33152;SDS011;19509;43.862;26.176;2023-03-01T04:40:33;3.73;;;3.63;;
33152;SDS011;19509;43.862;26.176;2023-03-01T04:42:58;4.20;;;4.10;;
33152;SDS011;19509;43.862;26.176;2023-03-01T04:45:25;4.07;;;3.97;;
33152;SDS011;19509;43.862;26.176;2023-03-01T04:47:50;4.00;;;3.90;;
33152;SDS011;19509;43.862;26.176;2023-03-01T04:50:19;4.50;;;4.30;;
33152;SDS011;19509;43.862;26.176;2023-03-01T04:52:46;4.10;;;4.00;;
33152;SDS011;19509;43.862;26.176;2023-03-01T04:55:12;4.40;;;4.30;;
33152;SDS011;19509;43.862;26.176;2023-03-01T04:57:38;4.30;;;4.20;;
33152;SDS011;19509;43.862;26.176;2023-03-01T05:00:05;4.40;;;4.30;;
33152;SDS011;19509;43.862;26.176;2023-03-01T05:02:54;4.20;;;4.10;;
33152;SDS011;19509;43.862;26.176;2023-03-01T05:05:34;4.37;;;4.27;;
33152;SDS011;19509;43.862;26.176;2023-03-01T05:08:03;4.00;;;3.90;;
33152;SDS011;19509;43.862;26.176;2023-03-01T05:10:30;4.20;;;4.10;;
33152;SDS011;19509;43.862;26.176;2023-03-01T05:12:57;4.20;;;4.10;;
33152;SDS011;19509;43.862;26.176;2023-03-01T05:15:28;4.23;;;4.13;;
33152;SDS011;19509;43.862;26.176;2023-03-01T05:17:56;4.03;;;3.93;;
33152;SDS011;19509;43.862;26.176;2023-03-01T05:20:24;4.60;;;4.50;;
33152;SDS011;19509;43.862;26.176;2023-03-01T05:22:51;4.80;;;4.70;;
33152;SDS011;19509;43.862;26.176;2023-03-01T05:25:19;4.57;;;4.47;;
33152;SDS011;19509;43.862;26.176;2023-03-01T05:27:46;4.90;;;4.80;;
33152;SDS011;19509;43.862;26.176;2023-03-01T05:30:12;5.57;;;5.37;;
33152;SDS011;19509;43.862;26.176;2023-03-01T05:32:41;5.67;;;5.47;;
33152;SDS011;19509;43.862;26.176;2023-03-01T05:35:09;4.40;;;4.30;;
33152;SDS011;19509;43.862;26.176;2023-03-01T05:37:38;4.00;;;3.90;;
33152;SDS011;19509;43.862;26.176;2023-03-01T05:40:06;3.90;;;3.80;;
33152;SDS011;19509;43.862;26.176;2023-03-01T05:42:40;3.50;;;3.40;;
33152;SDS011;19509;43.862;26.176;2023-03-01T05:45:07;3.53;;;3.43;;
33152;SDS011;19509;43.862;26.176;2023-03-01T05:47:34;3.63;;;3.53;;
33152;SDS011;19509;43.862;26.176;2023-03-01T05:50:00;4.00;;;3.90;;
33152;SDS011;19509;43.862;26.176;2023-03-01T05:52:26;3.93;;;3.83;;
33152;SDS011;19509;43.862;26.176;2023-03-01T05:54:52;4.20;;;4.10;;
33152;SDS011;19509;43.862;26.176;2023-03-01T05:57:17;3.63;;;3.53;;
33152;SDS011;19509;43.862;26.176;2023-03-01T05:59:43;4.40;;;4.30;;
33152;SDS011;19509;43.862;26.176;2023-03-01T06:02:08;3.70;;;3.60;;
33152;SDS011;19509;43.862;26.176;2023-03-01T06:04:34;4.47;;;4.27;;
33152;SDS011;19509;43.862;26.176;2023-03-01T06:06:59;4.40;;;4.30;;
33152;SDS011;19509;43.862;26.176;2023-03-01T06:09:25;4.60;;;4.50;;
33152;SDS011;19509;43.862;26.176;2023-03-01T06:11:51;4.37;;;4.27;;
33152;SDS011;19509;43.862;26.176;2023-03-01T06:14:16;4.33;;;4.23;;
33152;SDS011;19509;43.862;26.176;2023-03-01T06:16:42;4.63;;;4.53;;
33152;SDS011;19509;43.862;26.176;2023-03-01T06:19:07;4.20;;;4.10;;
33152;SDS011;19509;43.862;26.176;2023-03-01T06:21:33;4.40;;;4.30;;
33152;SDS011;19509;43.862;26.176;2023-03-01T06:23:58;4.60;;;4.50;;
33152;SDS011;19509;43.862;26.176;2023-03-01T06:26:24;4.70;;;4.60;;
33152;SDS011;19509;43.862;26.176;2023-03-01T06:28:49;5.30;;;5.10;;
33152;SDS011;19509;43.862;26.176;2023-03-01T06:31:17;4.83;;;4.70;;
33152;SDS011;19509;43.862;26.176;2023-03-01T06:33:42;4.93;;;4.80;;
33152;SDS011;19509;43.862;26.176;2023-03-01T06:36:09;4.30;;;4.20;;
33152;SDS011;19509;43.862;26.176;2023-03-01T06:38:35;5.50;;;5.30;;
33152;SDS011;19509;43.862;26.176;2023-03-01T06:41:00;4.90;;;4.80;;
33152;SDS011;19509;43.862;26.176;2023-03-01T06:43:26;5.40;;;5.20;;
33152;SDS011;19509;43.862;26.176;2023-03-01T06:45:52;5.17;;;5.07;;
33152;SDS011;19509;43.862;26.176;2023-03-01T06:48:18;3.90;;;3.80;;
33152;SDS011;19509;43.862;26.176;2023-03-01T06:50:43;4.13;;;4.03;;
33152;SDS011;19509;43.862;26.176;2023-03-01T06:53:09;3.87;;;3.77;;
33152;SDS011;19509;43.862;26.176;2023-03-01T06:55:34;3.80;;;3.70;;
33152;SDS011;19509;43.862;26.176;2023-03-01T06:58:00;4.00;;;3.90;;
33152;SDS011;19509;43.862;26.176;2023-03-01T07:00:27;4.00;;;3.90;;
33152;SDS011;19509;43.862;26.176;2023-03-01T07:02:53;4.03;;;3.93;;
33152;SDS011;19509;43.862;26.176;2023-03-01T07:05:18;4.07;;;3.97;;
33152;SDS011;19509;43.862;26.176;2023-03-01T07:07:44;3.83;;;3.73;;
33152;SDS011;19509;43.862;26.176;2023-03-01T07:10:10;4.13;;;4.03;;
33152;SDS011;19509;43.862;26.176;2023-03-01T07:12:36;3.97;;;3.87;;
33152;SDS011;19509;43.862;26.176;2023-03-01T07:15:02;3.97;;;3.87;;
33152;SDS011;19509;43.862;26.176;2023-03-01T07:17:28;4.03;;;3.93;;
33152;SDS011;19509;43.862;26.176;2023-03-01T07:19:54;4.00;;;3.90;;
33152;SDS011;19509;43.862;26.176;2023-03-01T07:22:19;3.80;;;3.70;;
33152;SDS011;19509;43.862;26.176;2023-03-01T07:24:45;3.60;;;3.50;;
33152;SDS011;19509;43.862;26.176;2023-03-01T07:27:11;3.80;;;3.70;;
33152;SDS011;19509;43.862;26.176;2023-03-01T07:29:36;3.70;;;3.60;;
33152;SDS011;19509;43.862;26.176;2023-03-01T07:32:02;3.83;;;3.73;;
33152;SDS011;19509;43.862;26.176;2023-03-01T07:34:28;3.73;;;3.63;;
33152;SDS011;19509;43.862;26.176;2023-03-01T07:36:54;3.57;;;3.47;;
33152;SDS011;19509;43.862;26.176;2023-03-01T07:39:20;3.60;;;3.50;;
33152;SDS011;19509;43.862;26.176;2023-03-01T07:41:47;4.27;;;4.17;;
33152;SDS011;19509;43.862;26.176;2023-03-01T07:44:14;3.43;;;3.33;;
33152;SDS011;19509;43.862;26.176;2023-03-01T07:46:40;3.30;;;3.30;;
33152;SDS011;19509;43.862;26.176;2023-03-01T07:49:05;3.70;;;3.60;;
33152;SDS011;19509;43.862;26.176;2023-03-01T07:51:31;3.50;;;3.40;;
33152;SDS011;19509;43.862;26.176;2023-03-01T07:53:57;3.40;;;3.30;;
33152;SDS011;19509;43.862;26.176;2023-03-01T07:56:22;3.77;;;3.67;;
33152;SDS011;19509;43.862;26.176;2023-03-01T07:58:48;3.53;;;3.43;;
33152;SDS011;19509;43.862;26.176;2023-03-01T08:01:15;3.90;;;3.80;;
33152;SDS011;19509;43.862;26.176;2023-03-01T08:03:42;3.77;;;3.67;;
33152;SDS011;19509;43.862;26.176;2023-03-01T08:06:09;3.90;;;3.80;;
33152;SDS011;19509;43.862;26.176;2023-03-01T08:08:36;4.20;;;4.10;;
33152;SDS011;19509;43.862;26.176;2023-03-01T08:11:03;3.50;;;3.40;;
33152;SDS011;19509;43.862;26.176;2023-03-01T08:13:30;3.30;;;3.20;;
33152;SDS011;19509;43.862;26.176;2023-03-01T08:16:10;3.60;;;3.50;;
33152;SDS011;19509;43.862;26.176;2023-03-01T08:18:37;3.47;;;3.37;;
33152;SDS011;19509;43.862;26.176;2023-03-01T08:21:06;3.70;;;3.60;;
33152;SDS011;19509;43.862;26.176;2023-03-01T08:23:37;4.20;;;4.10;;
33152;SDS011;19509;43.862;26.176;2023-03-01T08:26:13;3.40;;;3.30;;
33152;SDS011;19509;43.862;26.176;2023-03-01T08:28:40;4.30;;;4.20;;
33152;SDS011;19509;43.862;26.176;2023-03-01T08:31:19;3.70;;;3.60;;
33152;SDS011;19509;43.862;26.176;2023-03-01T08:33:47;4.10;;;4.00;;
33152;SDS011;19509;43.862;26.176;2023-03-01T08:36:16;4.10;;;4.00;;
33152;SDS011;19509;43.862;26.176;2023-03-01T08:38:42;4.23;;;4.13;;
33152;SDS011;19509;43.862;26.176;2023-03-01T08:41:09;3.53;;;3.43;;
33152;SDS011;19509;43.862;26.176;2023-03-01T08:43:34;3.60;;;3.50;;
33152;SDS011;19509;43.862;26.176;2023-03-01T08:46:00;3.83;;;3.73;;
33152;SDS011;19509;43.862;26.176;2023-03-01T08:48:27;3.80;;;3.70;;
33152;SDS011;19509;43.862;26.176;2023-03-01T08:50:53;3.77;;;3.67;;
33152;SDS011;19509;43.862;26.176;2023-03-01T08:53:18;3.77;;;3.67;;
33152;SDS011;19509;43.862;26.176;2023-03-01T08:55:44;3.80;;;3.70;;
33152;SDS011;19509;43.862;26.176;2023-03-01T08:58:10;3.80;;;3.70;;
33152;SDS011;19509;43.862;26.176;2023-03-01T09:00:35;3.97;;;3.87;;
33152;SDS011;19509;43.862;26.176;2023-03-01T09:03:01;4.00;;;3.90;;
33152;SDS011;19509;43.862;26.176;2023-03-01T09:05:27;4.07;;;3.97;;
33152;SDS011;19509;43.862;26.176;2023-03-01T09:07:52;3.60;;;3.50;;
33152;SDS011;19509;43.862;26.176;2023-03-01T09:10:18;3.60;;;3.50;;
33152;SDS011;19509;43.862;26.176;2023-03-01T09:12:43;3.50;;;3.40;;
33152;SDS011;19509;43.862;26.176;2023-03-01T09:15:09;3.70;;;3.60;;
33152;SDS011;19509;43.862;26.176;2023-03-01T09:17:35;4.00;;;3.90;;
33152;SDS011;19509;43.862;26.176;2023-03-01T09:20:00;3.87;;;3.77;;
33152;SDS011;19509;43.862;26.176;2023-03-01T09:22:26;4.37;;;4.27;;
33152;SDS011;19509;43.862;26.176;2023-03-01T09:24:51;3.67;;;3.57;;
33152;SDS011;19509;43.862;26.176;2023-03-01T09:27:17;3.90;;;3.80;;
33152;SDS011;19509;43.862;26.176;2023-03-01T09:29:44;4.27;;;4.17;;
33152;SDS011;19509;43.862;26.176;2023-03-01T09:32:09;4.00;;;3.90;;
33152;SDS011;19509;43.862;26.176;2023-03-01T09:34:35;3.70;;;3.60;;
33152;SDS011;19509;43.862;26.176;2023-03-01T09:37:21;3.50;;;3.40;;
33152;SDS011;19509;43.862;26.176;2023-03-01T09:39:47;3.37;;;3.27;;
33152;SDS011;19509;43.862;26.176;2023-03-01T09:42:12;3.80;;;3.70;;
33152;SDS011;19509;43.862;26.176;2023-03-01T09:47:30;3.70;;;3.60;;
33152;SDS011;19509;43.862;26.176;2023-03-01T09:58:02;3.27;;;3.23;;
33152;SDS011;19509;43.862;26.176;2023-03-01T10:00:51;3.13;;;3.03;;
33152;SDS011;19509;43.862;26.176;2023-03-01T10:05:56;2.43;;;2.43;;
33152;SDS011;19509;43.862;26.176;2023-03-01T10:08:26;2.80;;;2.70;;
33152;SDS011;19509;43.862;26.176;2023-03-01T10:10:56;2.53;;;2.53;;
33152;SDS011;19509;43.862;26.176;2023-03-01T10:16:48;2.30;;;2.30;;
33152;SDS011;19509;43.862;26.176;2023-03-01T10:19:24;2.43;;;2.33;;
33152;SDS011;19509;43.862;26.176;2023-03-01T10:21:57;2.53;;;2.53;;
33152;SDS011;19509;43.862;26.176;2023-03-01T10:24:28;2.67;;;2.47;;
33152;SDS011;19509;43.862;26.176;2023-03-01T10:27:01;2.60;;;2.50;;
33152;SDS011;19509;43.862;26.176;2023-03-01T10:29:44;2.60;;;2.50;;
33152;SDS011;19509;43.862;26.176;2023-03-01T10:32:15;2.30;;;2.30;;
33152;SDS011;19509;43.862;26.176;2023-03-01T10:34:42;2.67;;;2.67;;
33152;SDS011;19509;43.862;26.176;2023-03-01T10:37:09;2.70;;;2.70;;
33152;SDS011;19509;43.862;26.176;2023-03-01T10:39:37;2.83;;;2.73;;
33152;SDS011;19509;43.862;26.176;2023-03-01T10:42:23;2.70;;;2.60;;
33152;SDS011;19509;43.862;26.176;2023-03-01T10:44:52;2.30;;;2.30;;
33152;SDS011;19509;43.862;26.176;2023-03-01T10:47:25;2.73;;;2.63;;
33152;SDS011;19509;43.862;26.176;2023-03-01T10:50:03;2.83;;;2.80;;
33152;SDS011;19509;43.862;26.176;2023-03-01T10:52:35;2.40;;;2.33;;
33152;SDS011;19509;43.862;26.176;2023-03-01T10:55:04;2.27;;;2.27;;
33152;SDS011;19509;43.862;26.176;2023-03-01T10:57:49;2.33;;;2.33;;
33152;SDS011;19509;43.862;26.176;2023-03-01T11:00:30;2.20;;;2.20;;
33152;SDS011;19509;43.862;26.176;2023-03-01T11:05:25;2.00;;;2.00;;
33152;SDS011;19509;43.862;26.176;2023-03-01T11:07:56;2.10;;;2.10;;
33152;SDS011;19509;43.862;26.176;2023-03-01T11:10:24;2.10;;;2.10;;
33152;SDS011;19509;43.862;26.176;2023-03-01T11:12:52;1.80;;;1.80;;
33152;SDS011;19509;43.862;26.176;2023-03-01T11:15:27;1.90;;;1.90;;
33152;SDS011;19509;43.862;26.176;2023-03-01T11:17:54;2.10;;;2.10;;
33152;SDS011;19509;43.862;26.176;2023-03-01T11:20:34;2.00;;;2.00;;
33152;SDS011;19509;43.862;26.176;2023-03-01T11:23:03;1.80;;;1.80;;
33152;SDS011;19509;43.862;26.176;2023-03-01T11:25:34;1.70;;;1.70;;
33152;SDS011;19509;43.862;26.176;2023-03-01T11:28:03;2.00;;;2.00;;
33152;SDS011;19509;43.862;26.176;2023-03-01T11:30:32;1.80;;;1.80;;
33152;SDS011;19509;43.862;26.176;2023-03-01T11:33:11;1.70;;;1.70;;
33152;SDS011;19509;43.862;26.176;2023-03-01T11:35:53;2.00;;;2.00;;
33152;SDS011;19509;43.862;26.176;2023-03-01T11:38:23;1.73;;;1.73;;
33152;SDS011;19509;43.862;26.176;2023-03-01T11:40:52;2.30;;;2.30;;
33152;SDS011;19509;43.862;26.176;2023-03-01T11:43:37;2.40;;;2.40;;
33152;SDS011;19509;43.862;26.176;2023-03-01T11:52:04;2.33;;;2.33;;
33152;SDS011;19509;43.862;26.176;2023-03-01T12:12:27;1.93;;;1.93;;
33152;SDS011;19509;43.862;26.176;2023-03-01T12:23:56;2.00;;;2.00;;
33152;SDS011;19509;43.862;26.176;2023-03-01T12:26:26;1.93;;;1.93;;
33152;SDS011;19509;43.862;26.176;2023-03-01T12:34:33;2.00;;;2.00;;
33152;SDS011;19509;43.862;26.176;2023-03-01T12:51:05;1.60;;;1.60;;
33152;SDS011;19509;43.862;26.176;2023-03-01T12:53:36;1.50;;;1.50;;
33152;SDS011;19509;43.862;26.176;2023-03-01T12:56:12;1.37;;;1.37;;
33152;SDS011;19509;43.862;26.176;2023-03-01T13:13:14;1.37;;;1.37;;
33152;SDS011;19509;43.862;26.176;2023-03-01T13:15:44;1.70;;;1.70;;
33152;SDS011;19509;43.862;26.176;2023-03-01T13:23:11;1.60;;;1.60;;
33152;SDS011;19509;43.862;26.176;2023-03-01T13:33:43;1.50;;;1.50;;
33152;SDS011;19509;43.862;26.176;2023-03-01T13:46:52;1.60;;;1.60;;
33152;SDS011;19509;43.862;26.176;2023-03-01T13:49:21;1.50;;;1.50;;
33152;SDS011;19509;43.862;26.176;2023-03-01T13:51:50;1.50;;;1.50;;
33152;SDS011;19509;43.862;26.176;2023-03-01T13:54:20;1.70;;;1.70;;
33152;SDS011;19509;43.862;26.176;2023-03-01T13:56:51;1.53;;;1.53;;
33152;SDS011;19509;43.862;26.176;2023-03-01T13:59:19;1.47;;;1.47;;
33152;SDS011;19509;43.862;26.176;2023-03-01T14:01:53;1.80;;;1.80;;
33152;SDS011;19509;43.862;26.176;2023-03-01T14:07:08;1.60;;;1.60;;
33152;SDS011;19509;43.862;26.176;2023-03-01T14:09:35;1.73;;;1.73;;
33152;SDS011;19509;43.862;26.176;2023-03-01T14:17:30;1.67;;;1.67;;
33152;SDS011;19509;43.862;26.176;2023-03-01T14:22:44;2.00;;;1.90;;
33152;SDS011;19509;43.862;26.176;2023-03-01T14:27:54;2.53;;;2.43;;
33152;SDS011;19509;43.862;26.176;2023-03-01T14:30:43;2.03;;;2.03;;
33152;SDS011;19509;43.862;26.176;2023-03-01T14:41:02;2.20;;;2.20;;
33152;SDS011;19509;43.862;26.176;2023-03-01T14:43:37;2.13;;;2.13;;
33152;SDS011;19509;43.862;26.176;2023-03-01T14:46:06;2.20;;;2.20;;
33152;SDS011;19509;43.862;26.176;2023-03-01T14:48:42;2.30;;;2.30;;
33152;SDS011;19509;43.862;26.176;2023-03-01T14:51:09;2.20;;;2.20;;
33152;SDS011;19509;43.862;26.176;2023-03-01T14:53:37;2.27;;;2.27;;
33152;SDS011;19509;43.862;26.176;2023-03-01T14:56:02;2.20;;;2.10;;
33152;SDS011;19509;43.862;26.176;2023-03-01T14:58:28;2.10;;;2.10;;
33152;SDS011;19509;43.862;26.176;2023-03-01T15:01:02;2.10;;;2.10;;
33152;SDS011;19509;43.862;26.176;2023-03-01T15:03:33;2.10;;;2.10;;
33152;SDS011;19509;43.862;26.176;2023-03-01T15:06:02;2.20;;;2.20;;
33152;SDS011;19509;43.862;26.176;2023-03-01T15:08:29;2.00;;;2.00;;
33152;SDS011;19509;43.862;26.176;2023-03-01T15:11:01;1.97;;;1.97;;
33152;SDS011;19509;43.862;26.176;2023-03-01T15:13:41;2.60;;;2.60;;
33152;SDS011;19509;43.862;26.176;2023-03-01T15:16:13;2.00;;;2.00;;
33152;SDS011;19509;43.862;26.176;2023-03-01T15:18:45;2.00;;;2.00;;
33152;SDS011;19509;43.862;26.176;2023-03-01T15:21:21;2.57;;;2.57;;
33152;SDS011;19509;43.862;26.176;2023-03-01T15:23:55;2.30;;;2.30;;
33152;SDS011;19509;43.862;26.176;2023-03-01T15:26:25;2.00;;;2.00;;
33152;SDS011;19509;43.862;26.176;2023-03-01T15:28:55;2.20;;;2.13;;
33152;SDS011;19509;43.862;26.176;2023-03-01T15:31:36;2.07;;;2.07;;
33152;SDS011;19509;43.862;26.176;2023-03-01T15:34:07;2.00;;;2.00;;
33152;SDS011;19509;43.862;26.176;2023-03-01T15:37:02;1.90;;;1.90;;
33152;SDS011;19509;43.862;26.176;2023-03-01T15:42:13;1.90;;;1.90;;
33152;SDS011;19509;43.862;26.176;2023-03-01T15:45:19;2.07;;;2.07;;
33152;SDS011;19509;43.862;26.176;2023-03-01T15:48:32;1.90;;;1.90;;
33152;SDS011;19509;43.862;26.176;2023-03-01T15:50:44;2.00;;;2.00;;
33152;SDS011;19509;43.862;26.176;2023-03-01T15:53:20;2.30;;;2.20;;
33152;SDS011;19509;43.862;26.176;2023-03-01T15:55:45;3.53;;;3.43;;
33152;SDS011;19509;43.862;26.176;2023-03-01T16:00:48;2.57;;;2.57;;
33152;SDS011;19509;43.862;26.176;2023-03-01T16:03:16;3.20;;;3.10;;
33152;SDS011;19509;43.862;26.176;2023-03-01T16:05:46;2.83;;;2.80;;
33152;SDS011;19509;43.862;26.176;2023-03-01T16:08:13;2.63;;;2.63;;
33152;SDS011;19509;43.862;26.176;2023-03-01T16:10:38;2.43;;;2.43;;
33152;SDS011;19509;43.862;26.176;2023-03-01T16:13:05;2.70;;;2.70;;
33152;SDS011;19509;43.862;26.176;2023-03-01T16:15:31;2.40;;;2.40;;
33152;SDS011;19509;43.862;26.176;2023-03-01T16:17:59;2.57;;;2.57;;
33152;SDS011;19509;43.862;26.176;2023-03-01T16:20:25;2.67;;;2.67;;
33152;SDS011;19509;43.862;26.176;2023-03-01T16:22:51;2.70;;;2.70;;
33152;SDS011;19509;43.862;26.176;2023-03-01T16:25:18;2.80;;;2.80;;
33152;SDS011;19509;43.862;26.176;2023-03-01T16:27:46;2.67;;;2.67;;
33152;SDS011;19509;43.862;26.176;2023-03-01T16:32:40;2.80;;;2.80;;
33152;SDS011;19509;43.862;26.176;2023-03-01T16:35:07;2.43;;;2.43;;
33152;SDS011;19509;43.862;26.176;2023-03-01T16:37:34;2.80;;;2.77;;
33152;SDS011;19509;43.862;26.176;2023-03-01T16:40:00;2.70;;;2.70;;
33152;SDS011;19509;43.862;26.176;2023-03-01T16:42:26;2.90;;;2.90;;
33152;SDS011;19509;43.862;26.176;2023-03-01T16:44:55;3.00;;;3.00;;
33152;SDS011;19509;43.862;26.176;2023-03-01T16:47:21;2.47;;;2.47;;
33152;SDS011;19509;43.862;26.176;2023-03-01T16:49:47;2.53;;;2.53;;
33152;SDS011;19509;43.862;26.176;2023-03-01T16:52:12;3.10;;;3.00;;
33152;SDS011;19509;43.862;26.176;2023-03-01T16:54:38;2.80;;;2.80;;
33152;SDS011;19509;43.862;26.176;2023-03-01T16:57:04;2.93;;;2.83;;
33152;SDS011;19509;43.862;26.176;2023-03-01T16:59:29;2.87;;;2.87;;
33152;SDS011;19509;43.862;26.176;2023-03-01T17:01:55;3.10;;;3.00;;
33152;SDS011;19509;43.862;26.176;2023-03-01T17:04:20;2.70;;;2.70;;
33152;SDS011;19509;43.862;26.176;2023-03-01T17:06:46;2.60;;;2.60;;
33152;SDS011;19509;43.862;26.176;2023-03-01T17:09:13;3.50;;;3.40;;
33152;SDS011;19509;43.862;26.176;2023-03-01T17:11:39;3.20;;;3.10;;
33152;SDS011;19509;43.862;26.176;2023-03-01T17:14:04;2.97;;;2.97;;
33152;SDS011;19509;43.862;26.176;2023-03-01T17:16:30;3.23;;;3.17;;
33152;SDS011;19509;43.862;26.176;2023-03-01T17:18:55;3.17;;;3.10;;